createdAt,value
2017-11-03T00:00:18.590Z,27.40
2017-11-03T00:02:46.327Z,20.97
2017-11-03T00:05:13.994Z,26.57
2017-11-03T00:07:41.701Z,26.43
2017-11-03T00:10:11.017Z,22.17
2017-11-03T00:12:38.577Z,19.90
2017-11-03T00:15:06.623Z,27.07
2017-11-03T00:17:34.323Z,15.70
2017-11-03T00:20:02.254Z,22.27
2017-11-03T00:22:30.082Z,17.57
2017-11-03T00:24:57.824Z,20.03
2017-11-03T00:27:25.814Z,29.07
2017-11-03T00:29:53.580Z,25.13
2017-11-03T00:32:21.533Z,23.27
2017-11-03T00:34:49.576Z,31.27
2017-11-03T00:37:18.865Z,16.60
2017-11-03T00:39:47.568Z,26.03
2017-11-03T00:42:16.088Z,24.83
2017-11-03T00:44:44.672Z,14.87
2017-11-03T00:47:12.368Z,28.17
2017-11-03T00:49:40.078Z,18.83
2017-11-03T00:52:07.760Z,15.83
2017-11-03T00:54:35.480Z,18.87
2017-11-03T00:57:03.408Z,17.47
2017-11-03T00:59:31.310Z,16.23
2017-11-03T01:01:59.140Z,17.00
2017-11-03T01:04:26.886Z,16.27
2017-11-03T01:06:54.546Z,17.97
2017-11-03T01:09:22.312Z,13.33
2017-11-03T01:11:50.769Z,17.23
2017-11-03T01:14:18.441Z,15.83
2017-11-03T01:16:46.567Z,15.23
2017-11-03T01:19:14.283Z,16.10
2017-11-03T01:21:42.247Z,11.20
2017-11-03T01:24:10.166Z,13.77
2017-11-03T01:26:38.723Z,15.30
2017-11-03T01:29:06.989Z,11.33
2017-11-03T01:31:34.592Z,11.77
2017-11-03T01:34:03.516Z,20.63
2017-11-03T01:36:31.896Z,12.00
2017-11-03T01:38:59.856Z,16.23
2017-11-03T01:41:27.479Z,10.97
2017-11-03T01:43:56.835Z,15.60
2017-11-03T01:46:24.477Z,14.17
2017-11-03T01:48:52.979Z,13.70
2017-11-03T01:51:20.619Z,13.20
2017-11-03T01:53:48.540Z,18.13
2017-11-03T01:56:16.196Z,14.70
2017-11-03T01:58:43.959Z,10.40
2017-11-03T02:01:11.594Z,15.83
2017-11-03T02:03:39.514Z,18.03
2017-11-03T02:06:07.106Z,21.00
2017-11-03T02:08:35.014Z,14.77
2017-11-03T02:11:03.654Z,18.70
2017-11-03T02:13:31.313Z,13.10
2017-11-03T02:15:59.100Z,15.70
2017-11-03T02:18:26.653Z,13.70
2017-11-03T02:20:54.344Z,14.83
2017-11-03T02:23:21.961Z,12.90
2017-11-03T02:28:22.197Z,24.30
2017-11-03T02:30:49.913Z,12.57
2017-11-03T02:33:17.533Z,13.40
2017-11-03T02:35:45.488Z,13.60
2017-11-03T02:38:14.253Z,11.73
2017-11-03T02:40:42.303Z,15.23
2017-11-03T02:43:09.910Z,16.10
2017-11-03T02:45:38.276Z,14.00
2017-11-03T02:48:07.032Z,13.80
2017-11-03T02:50:34.717Z,15.03
2017-11-03T02:53:02.579Z,15.47
2017-11-03T02:55:30.640Z,13.20
2017-11-03T02:57:58.729Z,12.53
2017-11-03T03:00:26.433Z,13.33
2017-11-03T03:02:54.853Z,14.37
2017-11-03T03:05:22.482Z,15.93
2017-11-03T03:07:50.173Z,15.90
2017-11-03T03:10:17.947Z,10.30
2017-11-03T03:12:45.764Z,15.67
2017-11-03T03:15:13.526Z,15.00
2017-11-03T03:17:41.371Z,12.30
2017-11-03T03:20:09.212Z,13.40
2017-11-03T03:22:37.000Z,13.07
2017-11-03T03:25:04.679Z,15.30
2017-11-03T03:27:32.523Z,12.37
2017-11-03T03:30:00.468Z,15.73
2017-11-03T03:32:28.052Z,23.67
2017-11-03T03:34:56.430Z,14.47
2017-11-03T03:37:24.105Z,23.23
2017-11-03T03:39:51.841Z,14.13
2017-11-03T03:42:19.928Z,10.70
2017-11-03T03:44:47.864Z,16.23
2017-11-03T03:47:16.490Z,16.87
2017-11-03T03:49:44.120Z,9.83
2017-11-03T03:52:12.185Z,23.13
2017-11-03T03:54:39.949Z,16.00
2017-11-03T03:57:08.104Z,13.10
2017-11-03T03:59:35.728Z,16.53
2017-11-03T04:02:04.557Z,15.77
2017-11-03T04:04:32.060Z,14.17
2017-11-03T04:06:59.552Z,16.30
2017-11-03T04:09:27.058Z,13.90
2017-11-03T04:11:54.570Z,20.50
2017-11-03T04:14:22.096Z,18.37
2017-11-03T04:16:49.631Z,26.23
2017-11-03T04:19:17.574Z,17.30
2017-11-03T04:21:45.857Z,23.10
2017-11-03T04:24:13.358Z,17.90
2017-11-03T04:26:41.794Z,23.93
2017-11-03T04:29:09.306Z,21.10
2017-11-03T04:31:36.894Z,16.23
2017-11-03T04:34:05.159Z,13.87
2017-11-03T04:36:32.664Z,15.43
2017-11-03T04:39:00.149Z,15.40
2017-11-03T04:41:27.631Z,15.20
2017-11-03T04:43:55.144Z,19.57
2017-11-03T04:46:22.625Z,17.53
2017-11-03T04:48:50.260Z,20.83
2017-11-03T04:51:17.748Z,16.30
2017-11-03T04:53:46.105Z,11.07
2017-11-03T04:56:13.613Z,20.17
2017-11-03T04:58:41.157Z,19.50
2017-11-03T05:01:08.689Z,24.47
2017-11-03T05:03:36.188Z,18.90
2017-11-03T05:06:04.461Z,23.30
2017-11-03T05:08:31.957Z,13.90
2017-11-03T05:10:59.457Z,16.33
2017-11-03T05:13:26.953Z,22.00
2017-11-03T05:15:54.657Z,22.83
2017-11-03T05:18:22.165Z,27.13
2017-11-03T05:20:50.410Z,27.40
2017-11-03T05:23:17.900Z,21.57
2017-11-03T05:25:46.528Z,22.77
2017-11-03T05:28:14.099Z,40.17
2017-11-03T05:30:41.661Z,24.93
2017-11-03T05:33:09.210Z,14.00
2017-11-03T05:35:36.700Z,26.03
2017-11-03T05:38:04.249Z,24.83
2017-11-03T05:40:31.750Z,24.90
2017-11-03T05:43:00.030Z,15.27
2017-11-03T05:45:27.550Z,19.87
2017-11-03T05:47:55.075Z,17.90
2017-11-03T05:50:22.574Z,23.23
2017-11-03T05:52:50.089Z,25.10
2017-11-03T05:55:17.580Z,18.00
2017-11-03T05:57:45.089Z,21.33
2017-11-03T06:00:13.382Z,16.50
2017-11-03T06:02:40.878Z,21.97
2017-11-03T06:05:08.846Z,18.67
2017-11-03T06:07:36.354Z,24.57
2017-11-03T06:10:04.835Z,18.67
2017-11-03T06:12:32.328Z,22.93
2017-11-03T06:15:00.682Z,19.50
2017-11-03T06:17:28.176Z,17.10
2017-11-03T06:19:55.673Z,27.60
2017-11-03T06:22:23.186Z,13.90
2017-11-03T06:24:50.673Z,13.93
2017-11-03T06:27:18.219Z,16.63
2017-11-03T06:29:45.732Z,20.97
2017-11-03T06:32:13.234Z,16.40
2017-11-03T06:34:40.726Z,24.90
2017-11-03T06:37:09.028Z,15.60
2017-11-03T06:39:36.565Z,23.90
2017-11-03T06:42:04.987Z,31.33
2017-11-03T06:44:32.548Z,21.90
2017-11-03T06:47:00.450Z,21.37
2017-11-03T06:49:28.785Z,30.27
2017-11-03T06:51:56.285Z,19.20
2017-11-03T06:54:23.854Z,23.13
2017-11-03T06:56:51.362Z,14.50
2017-11-03T06:59:18.868Z,27.10
2017-11-03T07:01:46.375Z,25.10
2017-11-03T07:04:13.895Z,28.97
2017-11-03T07:06:41.419Z,28.37
2017-11-03T07:09:08.919Z,30.17
2017-11-03T07:11:37.229Z,23.30
2017-11-03T07:14:04.836Z,30.30
2017-11-03T07:16:32.351Z,27.93
2017-11-03T07:18:59.886Z,28.50
2017-11-03T07:21:28.162Z,26.80
2017-11-03T07:23:55.640Z,27.93
2017-11-03T07:26:23.291Z,23.43
2017-11-03T07:28:51.120Z,22.73
2017-11-03T07:31:18.788Z,27.37
2017-11-03T07:33:46.285Z,26.20
2017-11-03T07:36:13.837Z,26.77
2017-11-03T07:38:41.360Z,29.60
2017-11-03T07:41:08.891Z,25.17
2017-11-03T07:43:36.381Z,29.30
2017-11-03T07:46:03.904Z,37.10
2017-11-03T07:48:31.396Z,25.67
2017-11-03T07:50:58.932Z,27.13
2017-11-03T07:53:26.464Z,31.53
2017-11-03T07:55:53.993Z,28.97
2017-11-03T07:58:21.525Z,20.53
2017-11-03T08:00:49.069Z,27.10
2017-11-03T08:03:16.565Z,30.03
2017-11-03T08:05:44.055Z,27.13
2017-11-03T08:08:12.318Z,24.20
2017-11-03T08:10:40.585Z,23.33
2017-11-03T08:13:08.140Z,17.57
2017-11-03T08:15:36.787Z,23.20
2017-11-03T08:18:04.376Z,23.50
2017-11-03T08:20:31.864Z,29.73
2017-11-03T08:22:59.376Z,26.57
2017-11-03T08:25:26.916Z,25.10
2017-11-03T08:27:54.440Z,18.33
2017-11-03T08:30:21.963Z,20.63
2017-11-03T08:32:49.716Z,23.73
2017-11-03T08:35:17.223Z,22.67
2017-11-03T08:37:45.497Z,21.43
2017-11-03T08:40:13.769Z,23.83
2017-11-03T08:42:41.306Z,30.50
2017-11-03T08:45:08.803Z,22.03
2017-11-03T08:47:36.313Z,29.90
2017-11-03T08:50:03.846Z,31.70
2017-11-03T08:52:31.408Z,15.70
2017-11-03T08:54:58.942Z,26.80
2017-11-03T08:57:26.878Z,21.67
2017-11-03T08:59:54.397Z,15.97
2017-11-03T09:02:21.932Z,14.70
2017-11-03T09:04:49.448Z,16.70
2017-11-03T09:07:16.970Z,20.07
2017-11-03T09:09:44.910Z,19.00
2017-11-03T09:12:13.159Z,19.53
2017-11-03T09:14:40.724Z,28.97
2017-11-03T09:17:09.010Z,16.67
2017-11-03T09:19:36.580Z,26.00
2017-11-03T09:22:04.145Z,17.47
2017-11-03T09:24:32.418Z,20.17
2017-11-03T09:27:00.673Z,14.83
2017-11-03T09:29:28.257Z,19.70
2017-11-03T09:31:56.505Z,11.13
2017-11-03T09:34:23.989Z,18.03
2017-11-03T09:36:52.245Z,14.90
2017-11-03T09:39:19.766Z,16.20
2017-11-03T09:41:47.252Z,17.63
2017-11-03T09:44:14.736Z,22.23
2017-11-03T09:46:43.005Z,16.40
2017-11-03T09:49:11.311Z,22.33
2017-11-03T09:51:38.802Z,19.23
2017-11-03T09:54:06.299Z,14.87
2017-11-03T09:56:33.816Z,16.50
2017-11-03T09:59:01.415Z,16.93
2017-11-03T10:01:28.944Z,12.33
2017-11-03T10:03:56.441Z,11.70
2017-11-03T10:06:23.954Z,12.57
2017-11-03T10:08:51.475Z,19.60
2017-11-03T10:11:20.066Z,11.23
2017-11-03T10:13:47.554Z,10.80
2017-11-03T10:16:15.073Z,16.47
2017-11-03T10:18:42.569Z,20.13
2017-11-03T10:21:10.087Z,17.50
2017-11-03T10:23:37.604Z,25.43
2017-11-03T10:26:05.101Z,11.57
2017-11-03T10:28:32.626Z,18.13
2017-11-03T10:31:00.148Z,18.07
2017-11-03T10:33:27.691Z,13.33
2017-11-03T10:35:55.214Z,13.07
2017-11-03T10:38:22.705Z,17.80
2017-11-03T10:40:50.202Z,11.97
2017-11-03T10:43:17.773Z,15.63
2017-11-03T10:45:45.316Z,18.30
2017-11-03T10:48:12.938Z,14.63
2017-11-03T10:50:40.456Z,11.40
2017-11-03T10:53:07.985Z,13.10
2017-11-03T10:55:35.521Z,16.43
2017-11-03T10:58:03.284Z,10.63
2017-11-03T11:00:31.549Z,21.53
2017-11-03T11:02:59.098Z,34.27
2017-11-03T11:05:26.641Z,10.33
2017-11-03T11:07:54.156Z,13.83
2017-11-03T11:10:21.736Z,9.17
2017-11-03T11:12:49.249Z,13.70
2017-11-03T11:15:17.500Z,15.57
2017-11-03T11:17:45.009Z,14.53
2017-11-03T11:20:12.524Z,10.63
2017-11-03T11:22:40.016Z,15.13
2017-11-03T11:25:11.024Z,12.30
2017-11-03T11:27:38.553Z,10.40
2017-11-03T11:30:06.502Z,10.90
2017-11-03T11:32:34.254Z,21.47
2017-11-03T11:35:01.810Z,10.93
2017-11-03T11:37:30.073Z,10.43
2017-11-03T11:39:58.358Z,12.40
2017-11-03T11:42:25.887Z,8.00
2017-11-03T11:44:53.387Z,9.40
2017-11-03T11:47:20.909Z,10.63
2017-11-03T11:49:48.837Z,24.83
2017-11-03T11:52:16.369Z,27.23
2017-11-03T11:54:43.914Z,10.50
2017-11-03T11:57:12.181Z,11.03
2017-11-03T11:59:40.461Z,6.07
2017-11-03T12:02:09.435Z,12.20
2017-11-03T12:04:36.949Z,19.63
2017-11-03T12:07:04.470Z,6.10
2017-11-03T12:09:31.975Z,6.30
2017-11-03T12:11:59.480Z,6.50
2017-11-03T12:14:27.399Z,13.33
2017-11-03T12:16:58.299Z,9.00
2017-11-03T12:19:26.762Z,6.83
2017-11-03T12:21:54.260Z,12.90
2017-11-03T12:24:21.741Z,8.23
2017-11-03T12:26:49.235Z,9.47
2017-11-03T12:29:16.759Z,11.27
2017-11-03T12:31:44.324Z,7.67
2017-11-03T12:34:11.848Z,13.43
2017-11-03T12:36:40.117Z,21.53
2017-11-03T12:39:08.632Z,14.00
2017-11-03T12:41:36.104Z,10.00
2017-11-03T12:44:03.587Z,20.37
2017-11-03T12:46:31.072Z,9.77
2017-11-03T12:48:58.572Z,13.83
2017-11-03T12:51:26.068Z,5.50
2017-11-03T12:53:53.597Z,7.87
2017-11-03T12:56:21.141Z,9.23
2017-11-03T12:58:48.674Z,6.33
2017-11-03T13:01:16.976Z,9.03
2017-11-03T13:03:44.496Z,9.43
2017-11-03T13:06:11.979Z,7.07
2017-11-03T13:08:39.479Z,14.33
2017-11-03T13:11:07.028Z,11.50
2017-11-03T13:13:34.535Z,5.80
2017-11-03T13:16:02.178Z,7.70
2017-11-03T13:18:29.686Z,12.37
2017-11-03T13:20:57.158Z,8.63
2017-11-03T13:23:24.679Z,18.23
2017-11-03T13:25:52.967Z,5.87
2017-11-03T13:28:20.462Z,3.70
2017-11-03T13:30:54.835Z,6.87
2017-11-03T13:33:22.351Z,8.20
2017-11-03T13:35:49.829Z,8.13
2017-11-03T13:38:17.327Z,8.27
2017-11-03T13:40:44.852Z,8.63
2017-11-03T13:43:12.430Z,7.50
2017-11-03T13:45:40.737Z,10.27
2017-11-03T13:48:08.258Z,12.10
2017-11-03T13:50:35.894Z,5.20
2017-11-03T13:53:03.379Z,9.67
2017-11-03T13:55:30.874Z,12.53
2017-11-03T13:57:58.389Z,12.23
2017-11-03T14:00:25.909Z,11.33
2017-11-03T14:02:53.417Z,12.13
2017-11-03T14:05:20.914Z,10.73
2017-11-03T14:07:48.412Z,6.13
2017-11-03T14:10:15.932Z,7.37
2017-11-03T14:12:43.424Z,8.20
2017-11-03T14:15:10.970Z,12.10
2017-11-03T14:17:39.272Z,10.17
2017-11-03T14:20:06.791Z,10.60
2017-11-03T14:22:34.289Z,13.10
2017-11-03T14:25:01.798Z,10.07
2017-11-03T14:27:29.300Z,15.83
2017-11-03T14:29:56.949Z,9.57
2017-11-03T14:32:24.461Z,10.53
2017-11-03T14:34:51.969Z,4.80
2017-11-03T14:37:19.502Z,8.90
2017-11-03T14:39:46.990Z,7.43
2017-11-03T14:42:14.491Z,10.57
2017-11-03T14:44:42.018Z,13.67
2017-11-03T14:47:09.524Z,8.50
2017-11-03T14:49:37.035Z,7.60
2017-11-03T14:52:04.539Z,11.70
2017-11-03T14:54:32.038Z,11.53
2017-11-03T14:56:59.538Z,11.47
2017-11-03T14:59:27.093Z,13.00
2017-11-03T15:01:54.598Z,10.03
2017-11-03T15:04:22.080Z,9.53
2017-11-03T15:06:50.357Z,6.47
2017-11-03T15:09:17.866Z,8.20
2017-11-03T15:11:45.357Z,7.93
2017-11-03T15:14:12.906Z,11.77
2017-11-03T15:16:40.427Z,10.30
2017-11-03T15:19:08.677Z,24.50
2017-11-03T15:21:36.176Z,6.63
2017-11-03T15:24:03.716Z,5.93
2017-11-03T15:26:32.040Z,7.43
2017-11-03T15:28:59.550Z,11.00
2017-11-03T15:31:27.082Z,9.70
2017-11-03T15:33:56.459Z,12.37
2017-11-03T15:36:23.936Z,13.00
2017-11-03T15:38:51.609Z,11.50
2017-11-03T15:41:19.162Z,14.33
2017-11-03T15:43:46.685Z,15.53
2017-11-03T15:46:14.180Z,18.80
2017-11-03T15:48:41.666Z,14.80
2017-11-03T15:51:10.019Z,15.70
2017-11-03T15:53:38.386Z,17.87
2017-11-03T15:56:05.932Z,16.80
2017-11-03T15:58:33.491Z,16.83
2017-11-03T16:01:01.044Z,26.03
2017-11-03T16:03:28.882Z,23.13
2017-11-03T16:05:56.978Z,20.30
2017-11-03T16:08:25.309Z,30.40
2017-11-03T16:10:52.811Z,29.13
2017-11-03T16:13:20.315Z,23.77
2017-11-03T16:15:47.833Z,22.20
2017-11-03T16:18:15.421Z,28.67
2017-11-03T16:20:42.916Z,24.97
2017-11-03T16:23:10.417Z,23.33
2017-11-03T16:25:37.993Z,23.30
2017-11-03T16:28:05.478Z,36.47
2017-11-03T16:30:33.030Z,25.17
2017-11-03T16:33:00.514Z,31.23
2017-11-03T16:35:28.012Z,25.13
2017-11-03T16:37:55.523Z,35.13
2017-11-03T16:40:23.029Z,28.80
2017-11-03T16:42:50.591Z,24.93
2017-11-03T16:45:18.127Z,29.27
2017-11-03T16:47:46.375Z,29.17
2017-11-03T16:50:14.026Z,21.53
2017-11-03T16:52:41.599Z,24.63
2017-11-03T16:55:09.370Z,28.43
2017-11-03T16:57:37.021Z,35.77
2017-11-03T17:00:05.761Z,34.37
2017-11-03T17:02:34.212Z,37.60
2017-11-03T17:05:01.686Z,33.97
2017-11-03T17:07:29.178Z,47.03
2017-11-03T17:09:56.669Z,29.40
2017-11-03T17:12:24.157Z,31.90
2017-11-03T17:14:51.669Z,37.77
2017-11-03T17:17:19.217Z,38.77
2017-11-03T17:19:46.725Z,38.97
2017-11-03T17:22:14.232Z,41.33
2017-11-03T17:24:42.605Z,61.57
2017-11-03T17:27:10.137Z,49.63
2017-11-03T17:29:37.659Z,46.07
2017-11-03T17:32:05.185Z,46.57
2017-11-03T17:34:32.817Z,48.93
2017-11-03T17:37:00.348Z,43.47
2017-11-03T17:39:27.878Z,45.20
2017-11-03T17:41:55.521Z,48.30
2017-11-03T17:44:23.547Z,54.37
2017-11-03T17:46:51.331Z,42.47
2017-11-03T17:49:18.880Z,46.47
2017-11-03T17:51:46.393Z,43.70
2017-11-03T17:54:13.986Z,51.37
2017-11-03T17:56:41.657Z,45.00
2017-11-03T17:59:09.261Z,38.97
2017-11-03T18:01:36.777Z,42.87
2017-11-03T18:04:05.055Z,50.40
2017-11-03T18:06:32.551Z,43.80
2017-11-03T18:09:00.081Z,51.33
2017-11-03T18:11:28.384Z,44.33
2017-11-03T18:13:55.907Z,41.53
2017-11-03T18:16:23.411Z,41.47
2017-11-03T18:18:50.929Z,48.27
2017-11-03T18:21:18.427Z,45.00
2017-11-03T18:23:45.927Z,32.07
2017-11-03T18:26:13.440Z,38.80
2017-11-03T18:28:41.308Z,36.23
2017-11-03T18:31:08.843Z,33.60
2017-11-03T18:33:38.527Z,30.90
2017-11-03T18:36:06.362Z,35.27
2017-11-03T18:38:33.922Z,36.23
2017-11-03T18:41:03.996Z,43.93
2017-11-03T18:43:31.480Z,39.30
2017-11-03T18:48:35.503Z,80.23
2017-11-03T18:51:03.108Z,52.60
2017-11-03T18:53:30.678Z,44.73
2017-11-03T18:55:58.243Z,36.90
2017-11-03T18:58:25.878Z,35.53
2017-11-03T19:00:53.420Z,30.13
2017-11-03T19:03:21.028Z,36.40
2017-11-03T19:05:49.610Z,33.03
2017-11-03T19:08:17.135Z,39.90
2017-11-03T19:10:44.997Z,67.80
2017-11-03T19:13:13.807Z,76.37
2017-11-03T19:15:41.399Z,33.03
2017-11-03T19:18:10.130Z,35.20
2017-11-03T19:20:38.735Z,36.37
2017-11-03T19:23:06.284Z,26.53
2017-11-03T19:25:36.768Z,37.43
2017-11-03T19:28:04.379Z,46.90
2017-11-03T19:30:32.033Z,45.00
2017-11-03T19:32:59.554Z,31.93
2017-11-03T19:35:27.066Z,34.33
2017-11-03T19:37:54.615Z,40.37
2017-11-03T19:40:22.093Z,28.47
2017-11-03T19:42:50.252Z,31.63
2017-11-03T19:45:21.049Z,45.60
2017-11-03T19:50:24.049Z,46.33
2017-11-03T19:52:51.614Z,39.27
2017-11-03T19:55:19.357Z,44.10
2017-11-03T19:57:46.888Z,45.30
2017-11-03T20:00:15.273Z,38.63
2017-11-03T20:02:42.848Z,42.63
2017-11-03T20:05:10.737Z,38.57
2017-11-03T20:07:38.251Z,51.83
2017-11-03T20:10:05.772Z,41.63
2017-11-03T20:12:33.315Z,56.03
2017-11-03T20:15:00.825Z,43.20
2017-11-03T20:17:28.621Z,39.07
2017-11-03T20:19:56.139Z,45.07
2017-11-03T20:22:24.437Z,35.43
2017-11-03T20:24:52.733Z,40.30
2017-11-03T20:27:20.242Z,51.30
2017-11-03T20:29:47.765Z,35.60
2017-11-03T20:32:15.310Z,47.87
2017-11-03T20:34:43.638Z,41.90
2017-11-03T20:37:11.167Z,35.67
2017-11-03T20:39:38.670Z,48.30
2017-11-03T20:42:06.172Z,33.73
2017-11-03T20:44:34.437Z,38.93
2017-11-03T20:47:02.721Z,75.53
2017-11-03T20:49:30.501Z,103.70
2017-11-03T20:51:57.988Z,77.37
2017-11-03T20:54:25.496Z,41.83
2017-11-03T20:56:53.787Z,38.90
2017-11-03T20:59:22.083Z,31.17
2017-11-03T21:01:49.593Z,36.67
2017-11-03T21:04:17.085Z,35.60
2017-11-03T21:06:44.594Z,38.23
2017-11-03T21:09:12.600Z,43.97
2017-11-03T21:11:40.104Z,42.13
2017-11-03T21:14:07.635Z,48.43
2017-11-03T21:16:35.154Z,36.47
2017-11-03T21:19:02.635Z,44.80
2017-11-03T21:21:31.223Z,126.20
2017-11-03T21:23:59.508Z,49.73
2017-11-03T21:26:27.988Z,48.20
2017-11-03T21:28:56.260Z,49.07
2017-11-03T21:31:23.790Z,58.77
2017-11-03T21:33:52.125Z,43.80
2017-11-03T21:36:19.661Z,43.67
2017-11-03T21:38:47.162Z,48.73
2017-11-03T21:41:14.661Z,59.23
2017-11-03T21:43:42.156Z,48.97
2017-11-03T21:46:09.665Z,49.23
2017-11-03T21:48:37.188Z,41.40
2017-11-03T21:51:04.676Z,42.83
2017-11-03T21:53:32.448Z,34.00
2017-11-03T21:56:00.075Z,50.43
2017-11-03T21:58:27.565Z,47.47
2017-11-03T22:00:55.094Z,38.33
2017-11-03T22:03:22.593Z,40.27
2017-11-03T22:05:50.141Z,36.60
2017-11-03T22:08:17.654Z,35.80
2017-11-03T22:10:45.157Z,46.70
2017-11-03T22:13:12.873Z,46.50
2017-11-03T22:15:40.473Z,38.63
2017-11-03T22:18:08.000Z,47.10
2017-11-03T22:20:35.507Z,42.33
2017-11-03T22:23:03.006Z,48.03
2017-11-03T22:25:30.512Z,48.37
2017-11-03T22:27:58.037Z,41.00
2017-11-03T22:30:25.579Z,46.90
2017-11-03T22:32:53.856Z,59.03
2017-11-03T22:35:22.237Z,40.20
2017-11-03T22:37:50.515Z,40.20
2017-11-03T22:40:18.040Z,46.07
2017-11-03T22:42:45.538Z,42.60
2017-11-03T22:45:13.049Z,41.07
2017-11-03T22:47:40.565Z,50.30
2017-11-03T22:50:08.065Z,43.00
2017-11-03T22:52:35.574Z,47.83
2017-11-03T22:55:03.059Z,45.43
2017-11-03T22:57:30.539Z,68.30
2017-11-03T22:59:58.041Z,43.37
2017-11-03T23:02:25.577Z,65.77
2017-11-03T23:04:53.083Z,78.73
2017-11-03T23:07:20.609Z,46.03
2017-11-03T23:09:48.881Z,38.57
2017-11-03T23:12:16.430Z,45.70
2017-11-03T23:14:44.421Z,43.93
2017-11-03T23:17:12.689Z,47.07
2017-11-03T23:19:41.111Z,115.30
2017-11-03T23:22:08.605Z,52.40
2017-11-03T23:24:36.134Z,38.10
2017-11-03T23:27:03.654Z,46.57
2017-11-03T23:29:32.166Z,39.00
2017-11-03T23:32:00.555Z,41.63
2017-11-03T23:34:28.076Z,40.20
2017-11-03T23:36:56.380Z,41.00
2017-11-03T23:39:24.526Z,37.90
2017-11-03T23:41:53.820Z,43.30
2017-11-03T23:44:22.085Z,43.40
2017-11-03T23:46:50.373Z,43.47
2017-11-03T23:49:18.653Z,47.43
2017-11-03T23:51:46.168Z,35.70
2017-11-03T23:54:13.701Z,45.00
2017-11-03T23:56:41.210Z,39.33
2017-11-03T23:59:08.708Z,37.97
